Terminal Aerodrome Forecast
Issued by NWS Paducah, KY

Home | Current Version | Previous Version | Text Only | Print | Product List | Glossary On
Versions: 1 2 3 4 5 6 7 8 9 10 11 12 13 14
000
FTUS43 KPAH 312336
TAFPAH
TAF
KPAH 312336Z 0100/0124 36008KT P6SM VCSH BKN015
     FM010800 03007KT 6SM BR OVC010
     FM011100 02005KT 3SM -DZ BR OVC008
     FM011600 36004KT P6SM BKN026 OVC035
     FM011930 01007KT P6SM -SHRA BKN026 BKN080=

USA.gov is the U.S. government's official web portal to all federal, state and local government web resources and services.